Time;durP1;ratioP1;P1;durP2;ratioP2;P2;SDS_P1;SDS_P2;PMS_P1;PMS_P2;Temp;Humidity;BMP_temperature;BMP_pressure;BME280_temperature;BME280_humidity;BME280_pressure;Samples;Min_cycle;Max_cycle;Signal;HPM_P1;HPM_P2
2022/11/28 00:02:11;;;;;;;42.00;23.23;;;;;;;1.92;100.00;98247.44;6291064;28;20779;-43
2022/11/28 00:05:13;;;;;;;41.83;22.17;;;;;;;1.94;100.00;98242.16;6290318;28;20235;-44
2022/11/28 00:08:15;;;;;;;39.10;22.20;;;;;;;1.96;100.00;98248.19;6289991;28;20225;-44
2022/11/28 00:11:18;;;;;;;40.43;22.37;;;;;;;1.96;100.00;98237.75;6291204;28;20227;-44
2022/11/28 00:14:20;;;;;;;37.03;21.57;;;;;;;1.98;100.00;98236.81;6284632;28;20223;-46
2022/11/28 00:17:22;;;;;;;37.73;22.73;;;;;;;1.99;100.00;98232.47;6290104;28;20311;-45
2022/11/28 00:20:24;;;;;;;37.77;22.10;;;;;;;1.99;100.00;98224.66;6290487;28;20651;-44
2022/11/28 00:23:27;;;;;;;36.57;21.50;;;;;;;1.99;100.00;98220.28;6287515;28;20232;-45
2022/11/28 00:26:33;;;;;;;37.40;21.33;;;;;;;2.01;100.00;98222.81;6289117;28;20706;-46
2022/11/28 00:29:35;;;;;;;33.57;19.03;;;;;;;2.00;100.00;98214.16;6295858;28;20247;-43
2022/11/28 00:32:37;;;;;;;32.60;19.40;;;;;;;2.01;100.00;98215.84;6291660;28;20230;-45
2022/11/28 00:35:39;;;;;;;32.50;20.37;;;;;;;2.02;100.00;98203.69;6294833;28;20315;-44
2022/11/28 00:38:42;;;;;;;31.20;20.30;;;;;;;2.05;100.00;98203.59;6293722;28;20718;-44
2022/11/28 00:41:44;;;;;;;32.77;18.90;;;;;;;2.05;100.00;98203.59;6275597;28;20727;-45
2022/11/28 00:44:48;;;;;;;31.57;18.43;;;;;;;2.05;100.00;98195.78;6295202;28;20232;-44
2022/11/28 00:47:50;;;;;;;28.97;18.40;;;;;;;2.05;100.00;98185.34;6287824;28;20313;-47
2022/11/28 00:50:53;;;;;;;31.00;17.97;;;;;;;2.03;100.00;98187.16;6293623;28;20308;-46
2022/11/28 00:53:57;;;;;;;32.43;18.90;;;;;;;2.00;100.00;98182.06;6292656;28;20261;-44
2022/11/28 00:56:59;;;;;;;34.57;19.83;;;;;;;2.01;100.00;98182.00;6292897;28;20233;-47
2022/11/28 01:00:03;;;;;;;31.57;17.90;;;;;;;2.00;100.00;98182.06;6288166;28;20283;-43
2022/11/28 01:03:05;;;;;;;28.23;18.67;;;;;;;1.96;100.00;98173.53;6290085;28;20228;-44
2022/11/28 01:06:09;;;;;;;32.47;18.37;;;;;;;1.97;100.00;98172.66;6293309;28;20301;-44
2022/11/28 01:09:22;;;;;;;28.43;18.33;;;;;;;1.94;100.00;98161.50;6294402;28;20222;-43
2022/11/28 01:12:24;;;;;;;28.83;17.43;;;;;;;1.93;100.00;98167.59;6293063;28;20249;-43
2022/11/28 01:15:26;;;;;;;28.90;18.43;;;;;;;1.91;100.00;98157.25;6291332;28;20232;-44
2022/11/28 01:18:29;;;;;;;26.17;18.17;;;;;;;1.79;100.00;98158.59;6293531;28;20243;-44
2022/11/28 01:21:31;;;;;;;25.00;16.17;;;;;;;1.77;100.00;98149.13;6292745;28;20297;-44
2022/11/28 01:24:33;;;;;;;25.83;16.43;;;;;;;1.74;100.00;98149.25;6290933;28;20232;-44
2022/11/28 01:27:35;;;;;;;24.40;16.13;;;;;;;1.67;100.00;98138.22;6291120;28;20232;-43
2022/11/28 01:30:37;;;;;;;19.93;14.17;;;;;;;1.67;100.00;98132.16;6292820;28;20310;-44
2022/11/28 01:33:39;;;;;;;24.10;15.80;;;;;;;1.62;100.00;98123.66;6292511;28;20232;-44
2022/11/28 01:36:41;;;;;;;20.27;14.00;;;;;;;1.52;100.00;98111.91;6293151;28;20259;-44
2022/11/28 01:39:43;;;;;;;22.10;14.20;;;;;;;1.50;100.00;98106.78;6290158;28;20230;-44
2022/11/28 01:42:45;;;;;;;18.80;13.97;;;;;;;1.44;100.00;98110.47;6291738;28;20312;-43
2022/11/28 01:45:48;;;;;;;21.87;13.53;;;;;;;1.40;100.00;98095.84;6293199;28;20224;-43
2022/11/28 01:48:51;;;;;;;18.47;13.43;;;;;;;1.36;100.00;98088.25;6292402;28;20227;-44
2022/11/28 01:52:06;;;;;;;21.60;13.17;;;;;;;1.33;100.00;98076.19;6289553;28;20233;-45
2022/11/28 01:55:11;;;;;;;17.77;12.87;;;;;;;1.27;100.00;98070.38;6290774;28;20245;-43
2022/11/28 01:58:14;;;;;;;20.37;12.77;;;;;;;1.25;100.00;98073.03;6291953;28;20310;-44
2022/11/28 02:01:17;;;;;;;18.33;13.27;;;;;;;1.23;100.00;98068.78;6292976;28;20236;-44
2022/11/28 02:04:21;;;;;;;16.53;11.97;;;;;;;1.19;100.00;98065.47;6292727;28;20226;-44
2022/11/28 02:07:23;;;;;;;18.33;12.23;;;;;;;1.16;100.00;98062.13;6288603;28;20691;-44
2022/11/28 02:10:35;;;;;;;18.67;13.33;;;;;;;1.13;100.00;98055.28;6292093;28;20246;-44
2022/11/28 02:14:13;;;;;;;14.70;11.60;;;;;;;1.09;100.00;98046.78;6286996;28;20233;-43
2022/11/28 02:17:43;;;;;;;18.23;12.77;;;;;;;1.06;100.00;98046.88;6290272;28;20233;-44
2022/11/28 02:21:04;;;;;;;16.93;11.53;;;;;;;1.06;100.00;98046.03;6292047;28;20234;-44
2022/11/28 02:24:24;;;;;;;16.90;12.10;;;;;;;1.01;100.00;98028.00;6288804;28;20317;-44
2022/11/28 02:28:04;;;;;;;18.17;12.77;;;;;;;0.99;100.00;98021.19;6288326;28;20233;-43
2022/11/28 02:31:06;;;;;;;16.37;11.30;;;;;;;0.97;100.00;98023.84;6287475;28;20264;-44
2022/11/28 02:34:19;;;;;;;17.33;11.60;;;;;;;0.98;100.00;98033.31;6289901;28;20232;-44
2022/11/28 02:37:39;;;;;;;16.07;11.70;;;;;;;0.97;100.00;98023.84;6285621;28;20372;-44
2022/11/28 02:41:04;;;;;;;19.73;11.47;;;;;;;1.04;100.00;98016.66;6291644;28;20232;-43
2022/11/28 02:44:32;;;;;;;17.30;11.33;;;;;;;1.05;100.00;98016.59;6286605;28;20719;-44
2022/11/28 02:47:48;;;;;;;21.00;13.70;;;;;;;1.06;100.00;98013.09;6290801;28;20702;-44
2022/11/28 02:51:01;;;;;;;17.50;11.87;;;;;;;1.10;100.00;98016.41;6288086;28;20231;-43
2022/11/28 02:54:06;;;;;;;16.73;12.17;;;;;;;1.10;100.00;98006.84;6285939;28;20231;-44
2022/11/28 02:57:09;;;;;;;17.27;11.47;;;;;;;1.13;100.00;98008.50;6279196;28;20600;-44
2022/11/28 03:00:28;;;;;;;18.10;12.50;;;;;;;1.19;100.00;98003.09;6290114;28;20231;-44
2022/11/28 03:03:37;;;;;;;17.43;11.60;;;;;;;1.23;100.00;97993.41;6287214;28;20237;-43
2022/11/28 03:06:58;;;;;;;18.57;11.43;;;;;;;1.26;100.00;98003.69;6290351;28;20231;-43
2022/11/28 03:10:34;;;;;;;20.00;12.07;;;;;;;1.30;100.00;97992.28;6285587;28;20225;-44
2022/11/28 03:14:00;;;;;;;17.80;11.83;;;;;;;1.35;100.00;97987.75;6287674;28;20631;-44
2022/11/28 03:18:06;;;;;;;17.63;11.67;;;;;;;1.39;100.00;97984.97;6286252;28;20313;-44
2022/11/28 03:21:15;;;;;;;19.67;12.23;;;;;;;1.42;100.00;97994.41;6185699;28;20234;-43
2022/11/28 03:24:28;;;;;;;17.20;11.63;;;;;;;1.44;100.00;97990.00;6196925;28;20239;-44
2022/11/28 03:28:07;;;;;;;21.70;12.13;;;;;;;1.46;100.00;97976.03;6284860;28;20230;-44
2022/11/28 03:31:19;;;;;;;16.57;11.87;;;;;;;1.46;100.00;97972.59;6164078;28;20234;-46
2022/11/28 03:34:25;;;;;;;20.07;12.37;;;;;;;1.47;100.00;97969.94;6159843;28;20241;-44
2022/11/28 03:37:33;;;;;;;18.07;12.30;;;;;;;1.49;100.00;97980.28;6164854;28;20237;-44
2022/11/28 03:40:43;;;;;;;16.80;11.57;;;;;;;1.50;100.00;97974.13;6159638;28;20246;-44
2022/11/28 03:43:52;;;;;;;22.30;12.10;;;;;;;1.53;100.00;97971.41;6159715;28;20241;-45
2022/11/28 03:46:58;;;;;;;16.27;11.40;;;;;;;1.56;100.00;97978.25;6166723;28;20403;-44
2022/11/28 03:50:06;;;;;;;18.40;12.10;;;;;;;1.57;100.00;97973.00;6163443;28;20283;-44
2022/11/28 03:53:16;;;;;;;17.83;11.33;;;;;;;1.61;100.00;97973.72;6164541;28;20231;-44
2022/11/28 03:56:52;;;;;;;15.97;10.57;;;;;;;1.63;100.00;97974.50;6164418;28;20242;-44
2022/11/28 03:59:58;;;;;;;17.40;10.57;;;;;;;1.64;100.00;97976.19;6164281;28;20719;-44
2022/11/28 04:03:10;;;;;;;17.97;11.03;;;;;;;1.64;100.00;97971.84;6165953;28;20601;-43
2022/11/28 04:06:25;;;;;;;15.40;9.93;;;;;;;1.65;100.00;97976.16;6223035;28;20234;-44
2022/11/28 04:09:43;;;;;;;13.87;9.60;;;;;;;1.66;100.00;97967.44;6295195;28;20230;-44
2022/11/28 04:12:55;;;;;;;14.40;10.40;;;;;;;1.65;100.00;97954.50;6293916;28;20736;-44
2022/11/28 04:16:38;;;;;;;14.47;10.40;;;;;;;1.67;100.00;97955.28;6289934;28;20243;-44
2022/11/28 04:19:47;;;;;;;13.47;9.67;;;;;;;1.65;100.00;97944.94;6293133;28;20228;-44
2022/11/28 04:22:54;;;;;;;13.77;10.37;;;;;;;1.68;100.00;97941.38;6295445;28;20227;-44
2022/11/28 04:26:06;;;;;;;15.53;10.27;;;;;;;1.67;100.00;97944.88;6294460;28;20239;-44
2022/11/28 04:29:12;;;;;;;16.53;11.17;;;;;;;1.67;100.00;97948.31;6285760;28;20227;-44
2022/11/28 04:32:20;;;;;;;13.00;9.57;;;;;;;1.69;100.00;97954.31;6293643;28;20226;-45
2022/11/28 04:35:29;;;;;;;16.23;9.93;;;;;;;1.68;100.00;97937.00;6289653;28;20647;-44
2022/11/28 04:38:33;;;;;;;13.97;9.67;;;;;;;1.70;100.00;97939.53;6291633;28;20746;-44
2022/11/28 04:41:45;;;;;;;14.03;9.70;;;;;;;1.69;100.00;97930.06;6287565;28;20256;-44
2022/11/28 04:45:00;;;;;;;13.00;9.07;;;;;;;1.71;100.00;97928.22;6288656;28;20225;-43
2022/11/28 04:48:02;;;;;;;14.77;9.50;;;;;;;1.69;100.00;97924.84;6289524;28;20241;-43
2022/11/28 04:51:14;;;;;;;13.80;8.80;;;;;;;1.69;100.00;97925.69;6295246;28;20581;-44
2022/11/28 04:54:46;;;;;;;12.30;9.30;;;;;;;1.70;100.00;97923.91;6288477;28;20224;-44
2022/11/28 04:57:52;;;;;;;13.10;8.57;;;;;;;1.69;100.00;97914.44;6279056;28;20388;-44
2022/11/28 05:01:00;;;;;;;12.43;8.33;;;;;;;1.70;100.00;97918.72;6289186;28;20310;-44
2022/11/28 05:04:03;;;;;;;15.77;9.60;;;;;;;1.68;100.00;97912.75;6289013;28;20234;-44
2022/11/28 05:07:07;;;;;;;12.03;8.43;;;;;;;1.67;100.00;97914.50;6291750;28;20249;-44
2022/11/28 05:10:11;;;;;;;12.77;8.40;;;;;;;1.68;100.00;97913.59;6294228;28;20698;-44
2022/11/28 05:13:14;;;;;;;11.50;8.60;;;;;;;1.67;100.00;97909.31;6293374;28;20227;-44
2022/11/28 05:16:16;;;;;;;12.67;8.00;;;;;;;1.68;100.00;97907.56;6292734;28;20230;-44
2022/11/28 05:19:18;;;;;;;11.37;8.20;;;;;;;1.68;100.00;97904.94;6287547;28;20265;-44
2022/11/28 05:22:21;;;;;;;11.30;8.63;;;;;;;1.65;100.00;97908.50;6292364;28;20238;-44
2022/11/28 05:25:23;;;;;;;11.60;8.63;;;;;;;1.65;100.00;97902.47;6293311;28;20363;-44
2022/11/28 05:28:26;;;;;;;12.00;8.53;;;;;;;1.64;100.00;97903.38;6292783;28;20714;-44
2022/11/28 05:31:28;;;;;;;12.50;9.13;;;;;;;1.63;100.00;97904.28;6294483;28;20569;-44
2022/11/28 05:34:30;;;;;;;12.40;7.90;;;;;;;1.61;100.00;97909.53;6287333;28;20376;-45
2022/11/28 05:37:32;;;;;;;11.47;8.90;;;;;;;1.63;100.00;97906.88;6292980;28;20326;-44
2022/11/28 05:40:34;;;;;;;12.23;9.20;;;;;;;1.63;100.00;97904.28;6292753;28;20239;-44
2022/11/28 05:43:36;;;;;;;11.43;8.10;;;;;;;1.63;100.00;97901.69;6292992;28;20259;-44
2022/11/28 05:46:39;;;;;;;12.87;8.83;;;;;;;1.62;100.00;97903.44;6290797;28;20230;-44
2022/11/28 05:49:41;;;;;;;15.90;8.50;;;;;;;1.61;100.00;97903.47;6285842;28;20232;-43
2022/11/28 05:52:44;;;;;;;12.40;8.00;;;;;;;1.60;100.00;97902.63;6286137;28;20235;-44
2022/11/28 05:55:47;;;;;;;12.07;8.77;;;;;;;1.63;100.00;97901.69;6286003;28;20234;-45
2022/11/28 05:58:49;;;;;;;12.57;8.60;;;;;;;1.66;99.40;97905.00;6292326;28;20227;-44
2022/11/28 06:01:51;;;;;;;13.33;8.13;;;;;;;1.66;99.55;97892.00;6295812;28;20234;-44
2022/11/28 06:04:54;;;;;;;10.83;8.57;;;;;;;1.66;99.30;97896.34;6288612;28;20239;-44
2022/11/28 06:07:56;;;;;;;11.80;9.23;;;;;;;1.69;98.94;97901.44;6290782;28;20232;-43
2022/11/28 06:10:59;;;;;;;13.47;8.83;;;;;;;1.71;98.80;97891.78;6291406;28;20222;-44
2022/11/28 06:14:01;;;;;;;11.90;8.50;;;;;;;1.70;98.68;97898.75;6291414;28;20595;-44
2022/11/28 06:17:04;;;;;;;10.87;8.83;;;;;;;1.71;98.92;97895.25;6292538;28;20235;-44
2022/11/28 06:20:07;;;;;;;11.13;8.17;;;;;;;1.71;99.14;97892.63;6291685;28;20580;-44
2022/11/28 06:23:09;;;;;;;10.23;7.47;;;;;;;1.72;99.12;97891.72;6289473;28;20234;-44
2022/11/28 06:26:14;;;;;;;14.77;9.07;;;;;;;1.74;99.04;97891.69;6289211;28;20298;-44
2022/11/28 06:29:16;;;;;;;11.97;8.63;;;;;;;1.70;99.02;97890.94;6284136;28;20257;-44
2022/11/28 06:32:18;;;;;;;12.50;9.00;;;;;;;1.74;99.04;97887.31;6291463;28;20731;-45
2022/11/28 06:35:23;;;;;;;13.10;9.00;;;;;;;1.75;99.17;97889.00;6291159;28;20712;-44
2022/11/28 06:38:25;;;;;;;11.47;8.23;;;;;;;1.77;98.89;97881.16;6289038;28;20535;-44
2022/11/28 06:41:27;;;;;;;12.53;8.03;;;;;;;1.80;98.85;97881.00;6286257;28;20241;-44
2022/11/28 06:44:29;;;;;;;10.03;7.53;;;;;;;1.80;99.27;97887.06;6290655;28;20316;-44
2022/11/28 06:47:31;;;;;;;13.33;8.73;;;;;;;1.83;99.02;97876.53;6291024;28;20286;-44
2022/11/28 06:50:33;;;;;;;11.07;8.23;;;;;;;1.87;98.16;97890.25;6290661;28;20227;-44
2022/11/28 06:53:35;;;;;;;12.93;8.80;;;;;;;1.87;97.77;97877.25;6283513;28;20230;-44
2022/11/28 06:56:39;;;;;;;11.00;8.10;;;;;;;1.89;97.91;97878.03;6289538;28;20225;-44
2022/11/28 06:59:41;;;;;;;13.43;8.43;;;;;;;1.90;97.86;97874.50;6294439;28;20353;-44
2022/11/28 07:02:44;;;;;;;11.87;8.87;;;;;;;1.88;97.47;97876.34;6294721;28;20620;-44
2022/11/28 07:05:46;;;;;;;11.90;7.93;;;;;;;1.89;97.29;97874.59;6293118;28;20233;-44
2022/11/28 07:08:49;;;;;;;11.73;7.87;;;;;;;1.86;97.30;97872.94;6294319;28;20258;-43
2022/11/28 07:11:51;;;;;;;11.40;8.37;;;;;;;1.85;97.15;97866.91;6288083;28;20239;-43
2022/11/28 07:14:54;;;;;;;10.63;8.27;;;;;;;1.92;97.15;97869.22;6284604;28;20563;-44
2022/11/28 07:17:56;;;;;;;10.47;7.77;;;;;;;1.89;96.92;97862.44;6286747;28;20284;-44
2022/11/28 07:20:58;;;;;;;12.13;8.13;;;;;;;1.86;97.04;97862.53;6289963;28;20239;-44
2022/11/28 07:24:01;;;;;;;9.97;7.60;;;;;;;1.84;96.91;97856.56;6286945;28;20234;-46
2022/11/28 07:27:03;;;;;;;10.83;7.77;;;;;;;1.84;97.21;97865.22;6270592;28;20276;-44
2022/11/28 07:30:06;;;;;;;10.43;7.90;;;;;;;1.86;96.78;97854.75;6289027;28;20321;-44
2022/11/28 07:33:08;;;;;;;10.93;8.03;;;;;;;1.91;96.95;97860.56;6289896;28;20215;-43
2022/11/28 07:36:13;;;;;;;11.47;8.30;;;;;;;2.00;96.57;97860.19;6281215;28;20533;-44
2022/11/28 07:39:16;;;;;;;11.90;8.40;;;;;;;2.11;95.40;97862.31;6288314;28;20211;-43
2022/11/28 07:42:18;;;;;;;9.83;7.73;;;;;;;2.18;94.90;97849.00;6296625;28;20235;-43
2022/11/28 07:45:39;;;;;;;11.13;8.30;;;;;;;2.21;94.98;97843.63;6296543;28;20231;-44
2022/11/28 07:49:03;;;;;;;11.97;8.03;;;;;;;2.27;94.78;97847.75;6289423;28;20225;-44
2022/11/28 07:52:05;;;;;;;11.40;7.57;;;;;;;2.30;94.92;97852.78;6294205;28;20722;-44
2022/11/28 07:55:07;;;;;;;11.07;8.03;;;;;;;2.33;93.90;97844.00;6295563;28;20258;-45
2022/11/28 07:58:09;;;;;;;12.73;8.37;;;;;;;2.38;93.87;97837.69;6292163;28;20236;-44
2022/11/28 08:01:21;;;;;;;11.63;7.87;;;;;;;2.47;93.35;97844.25;6293453;28;20612;-44
2022/11/28 08:04:23;;;;;;;12.27;8.00;;;;;;;2.53;93.16;97833.53;6294166;28;20267;-45
2022/11/28 08:07:25;;;;;;;12.20;7.97;;;;;;;2.57;93.15;97845.50;6294268;28;20384;-44
2022/11/28 08:10:27;;;;;;;10.87;8.17;;;;;;;2.65;92.78;97837.34;6294342;28;20418;-44
2022/11/28 08:13:30;;;;;;;10.07;7.80;;;;;;;2.71;92.63;97831.81;6295112;28;20742;-44
2022/11/28 08:16:32;;;;;;;12.47;7.90;;;;;;;2.79;92.21;97835.78;6293171;28;20652;-44
2022/11/28 08:19:34;;;;;;;9.77;8.00;;;;;;;2.88;91.41;97839.72;6288942;28;20276;-44
2022/11/28 08:22:37;;;;;;;9.20;6.93;;;;;;;2.95;90.75;97826.31;6293644;28;20299;-44
2022/11/28 08:25:39;;;;;;;11.03;7.30;;;;;;;3.04;90.15;97829.41;6293488;28;20228;-44
2022/11/28 08:28:42;;;;;;;11.43;7.73;;;;;;;3.09;89.81;97832.66;6292588;28;20676;-44
2022/11/28 08:31:44;;;;;;;12.37;7.83;;;;;;;3.08;90.04;97830.97;6292252;28;20430;-44
2022/11/28 08:34:46;;;;;;;11.03;7.27;;;;;;;3.10;90.35;97835.16;6291738;28;20319;-44
2022/11/28 08:37:48;;;;;;;10.57;6.93;;;;;;;3.13;90.45;97828.97;6293747;28;20388;-44
2022/11/28 08:41:02;;;;;;;10.30;7.40;;;;;;;3.20;90.15;97825.97;6293043;28;20260;-44
2022/11/28 08:44:04;;;;;;;10.27;6.57;;;;;;;3.27;90.33;97823.94;6286834;28;20250;-44
2022/11/28 08:47:06;;;;;;;9.37;6.83;;;;;;;3.32;88.97;97821.94;6294084;28;20253;-44
2022/11/28 08:50:09;;;;;;;7.57;6.17;;;;;;;3.47;88.50;97821.19;6290673;28;20348;-44
2022/11/28 08:53:11;;;;;;;8.80;6.60;;;;;;;3.68;87.89;97822.72;6282489;28;20234;-44
2022/11/28 08:56:13;;;;;;;8.13;6.17;;;;;;;3.83;87.10;97810.66;6292145;28;20229;-44
2022/11/28 08:59:15;;;;;;;11.13;7.27;;;;;;;4.00;84.31;97822.81;6288860;28;20225;-44
2022/11/28 09:02:17;;;;;;;7.37;5.87;;;;;;;4.17;83.05;97812.38;6274589;28;20770;-44
2022/11/28 09:05:28;;;;;;;8.30;6.07;;;;;;;4.33;81.91;97815.00;6291508;28;20668;-44
2022/11/28 09:08:30;;;;;;;7.67;5.50;;;;;;;4.62;82.69;97816.06;6288605;28;20760;-44
2022/11/28 09:11:32;;;;;;;8.10;5.80;;;;;;;4.85;80.48;97801.72;6289352;28;20236;-44
2022/11/28 09:14:34;;;;;;;6.83;5.40;;;;;;;4.87;78.97;97810.34;6290316;28;20261;-46
2022/11/28 09:17:36;;;;;;;6.30;5.63;;;;;;;4.76;79.19;97810.94;6290737;28;20249;-44
2022/11/28 09:20:39;;;;;;;5.67;5.00;;;;;;;4.73;79.56;97798.84;6291907;28;20236;-44
2022/11/28 09:23:43;;;;;;;7.80;5.83;;;;;;;4.66;79.00;97813.19;6288277;28;20234;-44
2022/11/28 09:26:45;;;;;;;7.47;5.27;;;;;;;4.72;79.73;97801.56;6290728;28;20226;-44
2022/11/28 09:29:47;;;;;;;8.18;5.28;;;;;;;4.82;79.10;97802.72;6246101;28;1250831;-44
2022/11/28 09:32:49;;;;;;;8.70;5.50;;;;;;;4.77;77.46;97810.00;6290051;28;20226;-44
2022/11/28 09:35:51;;;;;;;8.93;5.10;;;;;;;4.84;76.98;97793.03;6292233;28;20358;-44
2022/11/28 09:38:53;;;;;;;9.00;6.43;;;;;;;5.01;76.55;97794.69;6292248;28;20232;-44
2022/11/28 09:42:04;;;;;;;7.57;5.63;;;;;;;5.16;76.06;97786.84;6286149;28;20592;-44
2022/11/28 09:45:11;;;;;;;6.37;5.53;;;;;;;5.37;75.81;97790.00;6288855;28;20227;-46
2022/11/28 09:48:33;;;;;;;6.03;4.93;;;;;;;5.68;75.52;97777.75;6291894;28;20223;-44
2022/11/28 09:51:48;;;;;;;6.63;5.10;;;;;;;6.08;73.71;97766.63;6291562;28;20246;-44
2022/11/28 09:55:09;;;;;;;8.57;5.80;;;;;;;6.14;72.91;97768.00;6270644;28;20240;-47
2022/11/28 09:58:23;;;;;;;6.70;5.00;;;;;;;6.40;71.90;97761.13;6289513;28;20730;-44
2022/11/28 10:01:36;;;;;;;8.33;5.03;;;;;;;6.74;70.86;97750.22;6289563;28;20222;-44
2022/11/28 10:05:17;;;;;;;7.50;5.40;;;;;;;6.59;69.73;97744.16;6288308;28;20260;-43
2022/11/28 10:08:35;;;;;;;7.33;5.00;;;;;;;6.86;71.18;97752.06;6188391;28;20232;-44
2022/11/28 10:11:59;;;;;;;5.87;5.20;;;;;;;6.96;70.04;97753.16;6189189;28;20317;-44
2022/11/28 10:15:01;;;;;;;4.50;4.10;;;;;;;6.91;70.34;97747.34;6185949;28;20232;-44
2022/11/28 10:18:21;;;;;;;6.73;5.07;;;;;;;6.72;69.88;97740.78;6185519;28;20223;-45
2022/11/28 10:21:39;;;;;;;6.47;4.50;;;;;;;6.60;69.73;97747.63;6188482;28;20757;-43
2022/11/28 10:24:47;;;;;;;6.60;4.93;;;;;;;6.59;70.38;97741.53;6190107;28;20253;-44
2022/11/28 10:27:50;;;;;;;6.70;4.40;;;;;;;6.58;69.73;97744.28;6189224;28;20323;-44
2022/11/28 10:31:00;;;;;;;6.47;4.60;;;;;;;6.80;71.42;97741.13;6170097;28;20263;-44
2022/11/28 10:34:19;;;;;;;6.40;5.27;;;;;;;6.86;68.75;97720.59;6166567;28;20666;-44
2022/11/28 10:37:25;;;;;;;6.07;4.93;;;;;;;6.90;70.31;97729.94;6165368;28;20248;-44
2022/11/28 10:40:27;;;;;;;5.30;4.80;;;;;;;6.99;68.82;97733.75;6147023;28;20288;-44
2022/11/28 10:43:45;;;;;;;7.27;5.53;;;;;;;6.93;68.53;97724.50;6210238;28;20383;-44
2022/11/28 10:46:50;;;;;;;7.03;5.30;;;;;;;6.87;68.25;97718.81;6264987;28;20258;-45
2022/11/28 10:49:55;;;;;;;8.43;5.43;;;;;;;6.60;70.00;97714.38;6264930;28;20595;-44
2022/11/28 10:53:02;;;;;;;7.50;5.70;;;;;;;6.52;69.33;97710.56;6242684;28;20310;-44
2022/11/28 10:56:32;;;;;;;6.50;5.57;;;;;;;6.72;69.49;97701.44;6261313;28;20267;-44
2022/11/28 10:59:40;;;;;;;7.13;5.80;;;;;;;6.42;69.00;97698.97;6230178;28;20243;-44
2022/11/28 11:02:53;;;;;;;7.63;5.83;;;;;;;6.50;70.74;97704.56;6270385;28;20623;-45
2022/11/28 11:05:56;;;;;;;8.13;5.30;;;;;;;6.72;69.14;97690.94;6260427;28;20564;-45
2022/11/28 11:08:58;;;;;;;7.47;5.70;;;;;;;6.69;68.77;97696.41;6267649;28;20229;-44
2022/11/28 11:12:03;;;;;;;9.20;5.77;;;;;;;6.56;68.23;97694.56;6263439;28;20347;-44
2022/11/28 11:15:29;;;;;;;8.80;5.43;;;;;;;6.43;67.85;97696.28;6266208;28;20471;-44
2022/11/28 11:18:49;;;;;;;8.87;5.70;;;;;;;6.38;68.93;97700.13;6264617;28;20756;-44
2022/11/28 11:22:08;;;;;;;9.23;5.57;;;;;;;6.23;69.33;97691.44;6266172;28;20234;-45
2022/11/28 11:25:15;;;;;;;8.13;5.97;;;;;;;6.12;68.78;97688.66;6264023;28;20253;-44
2022/11/28 11:28:31;;;;;;;8.70;6.20;;;;;;;6.13;70.88;97691.19;6266428;28;20243;-44
2022/11/28 11:31:45;;;;;;;7.97;5.83;;;;;;;6.48;70.61;97693.38;6282324;28;20237;-44
2022/11/28 11:34:48;;;;;;;8.97;6.87;;;;;;;6.36;68.69;97683.66;6271930;28;20242;-44
2022/11/28 11:38:11;;;;;;;7.47;5.90;;;;;;;6.38;70.52;97681.78;6290403;28;20236;-44
2022/11/28 11:41:30;;;;;;;7.83;5.30;;;;;;;6.28;69.71;97689.38;6288919;28;20228;-45
2022/11/28 11:44:33;;;;;;;6.87;5.70;;;;;;;6.05;70.35;97701.28;6288719;28;20707;-44
2022/11/28 11:47:41;;;;;;;8.00;5.37;;;;;;;5.79;70.92;97694.19;6285705;28;20328;-44
2022/11/28 11:50:53;;;;;;;10.00;6.27;;;;;;;5.81;71.05;97693.13;6288674;28;20238;-44
2022/11/28 11:54:24;;;;;;;8.43;6.00;;;;;;;5.91;71.16;97694.28;6284191;28;20281;-44
2022/11/28 11:57:45;;;;;;;9.27;6.37;;;;;;;5.73;72.07;97684.06;6264362;28;20255;-44
2022/11/28 12:00:47;;;;;;;9.20;6.43;;;;;;;5.77;72.97;97703.88;6278086;28;20629;-44
2022/11/28 12:03:56;;;;;;;9.73;6.93;;;;;;;5.62;73.58;97687.31;6292543;28;20636;-44
2022/11/28 12:07:03;;;;;;;9.70;6.17;;;;;;;5.75;73.45;97693.50;6288917;28;20236;-45
2022/11/28 12:10:15;;;;;;;9.17;6.47;;;;;;;5.57;73.21;97684.16;6285741;28;20602;-44
2022/11/28 12:13:20;;;;;;;10.23;6.77;;;;;;;5.60;73.35;97694.41;6288640;28;20236;-45
2022/11/28 12:16:54;;;;;;;11.90;7.50;;;;;;;5.45;72.93;97690.97;6288638;28;20565;-45
2022/11/28 12:20:32;;;;;;;8.57;6.13;;;;;;;5.45;73.96;97695.34;6287996;28;20636;-44
2022/11/28 12:23:53;;;;;;;10.00;7.07;;;;;;;5.56;73.32;97687.69;6282129;28;20356;-45
2022/11/28 12:26:57;;;;;;;9.37;6.97;;;;;;;5.44;73.63;97678.81;6290182;28;20268;-44
2022/11/28 12:30:27;;;;;;;9.10;6.87;;;;;;;5.43;73.89;97689.34;6294803;28;20228;-45
2022/11/28 12:33:47;;;;;;;9.33;6.60;;;;;;;5.55;73.99;97689.47;6293351;28;20235;-44
2022/11/28 12:37:13;;;;;;;12.03;7.23;;;;;;;5.51;73.24;97693.19;6287554;28;20229;-45
2022/11/28 12:40:53;;;;;;;12.37;7.30;;;;;;;5.43;73.84;97692.81;6290619;28;20237;-44
2022/11/28 12:44:25;;;;;;;10.13;7.43;;;;;;;5.75;73.65;97683.03;6292935;28;20317;-46
2022/11/28 12:47:43;;;;;;;10.27;7.00;;;;;;;5.55;72.60;97680.78;6288839;28;20305;-44
2022/11/28 12:50:51;;;;;;;9.63;6.70;;;;;;;5.41;73.31;97684.22;6272812;28;20243;-44
2022/11/28 12:53:53;;;;;;;9.87;7.13;;;;;;;5.55;72.62;97676.38;6289424;28;20318;-44
2022/11/28 12:57:01;;;;;;;10.37;7.50;;;;;;;5.57;73.03;97685.00;6292323;28;20255;-44
2022/11/28 13:00:18;;;;;;;9.93;6.80;;;;;;;5.59;73.27;97687.50;6290231;28;20234;-45
2022/11/28 13:04:10;;;;;;;9.93;7.00;;;;;;;5.75;72.71;97688.28;6292975;28;21150;-44
2022/11/28 13:07:20;;;;;;;11.03;6.97;;;;;;;5.54;71.90;97673.84;6255438;28;20785;-44
2022/11/28 13:10:40;;;;;;;12.10;7.20;;;;;;;5.61;72.34;97684.78;6290227;28;20302;-45
2022/11/28 13:14:13;;;;;;;10.60;7.57;;;;;;;5.70;72.20;97692.09;6288827;28;20334;-45
2022/11/28 13:17:21;;;;;;;13.70;8.20;;;;;;;5.41;73.73;97694.69;6292357;28;20239;-44
2022/11/28 13:20:28;;;;;;;13.13;7.53;;;;;;;5.39;73.32;97695.72;6288808;28;20224;-45
2022/11/28 13:24:12;;;;;;;10.83;7.60;;;;;;;5.28;73.43;97704.19;6265129;28;20756;-45
2022/11/28 13:27:53;;;;;;;9.97;7.53;;;;;;;5.47;73.68;97694.34;6287835;28;20223;-44
2022/11/28 13:31:21;;;;;;;11.80;8.00;;;;;;;5.50;72.67;97693.28;6287002;28;20241;-44
2022/11/28 13:34:24;;;;;;;11.60;7.97;;;;;;;5.36;74.04;97694.13;6287535;28;20229;-44
2022/11/28 13:37:35;;;;;;;10.90;7.80;;;;;;;5.38;73.20;97705.34;6291681;28;20239;-45
2022/11/28 13:41:17;;;;;;;12.00;8.10;;;;;;;5.14;74.33;97696.31;6290926;28;20650;-44
2022/11/28 13:45:06;;;;;;;11.67;8.17;;;;;;;5.23;74.00;97689.69;6292008;28;20228;-45
2022/11/28 13:48:33;;;;;;;11.77;8.47;;;;;;;5.25;73.96;97700.91;6289318;28;20601;-44
2022/11/28 13:52:28;;;;;;;13.60;8.40;;;;;;;5.21;74.27;97700.25;6290897;28;20265;-45
2022/11/28 13:55:45;;;;;;;12.30;8.77;;;;;;;5.23;74.70;97702.78;6247504;28;20247;-44
2022/11/28 13:58:59;;;;;;;13.00;8.57;;;;;;;5.30;74.81;97712.78;6287095;28;20235;-45
2022/11/28 14:02:14;;;;;;;14.53;9.03;;;;;;;5.31;75.48;97713.63;6289042;28;20256;-44
2022/11/28 14:05:29;;;;;;;16.23;10.27;;;;;;;5.14;75.96;97720.69;6292015;28;20712;-45
2022/11/28 14:08:39;;;;;;;16.80;11.17;;;;;;;4.83;77.51;97728.59;6289183;28;20223;-45
2022/11/28 14:11:56;;;;;;;20.03;12.00;;;;;;;4.66;78.22;97718.25;6291921;28;20230;-44
2022/11/28 14:15:23;;;;;;;17.80;11.57;;;;;;;4.43;79.76;97720.38;6288207;28;20224;-46
2022/11/28 14:18:43;;;;;;;18.20;11.30;;;;;;;4.47;80.21;97726.28;6289015;28;20227;-50
2022/11/28 14:22:19;;;;;;;20.43;12.10;;;;;;;4.48;80.77;97727.13;6266098;28;20234;-44
2022/11/28 14:25:25;;;;;;;21.60;11.73;;;;;;;4.42;80.76;97733.50;6290825;28;20247;-44
2022/11/28 14:28:35;;;;;;;17.97;11.73;;;;;;;4.21;81.69;97734.66;6291129;28;20238;-46
2022/11/28 14:31:38;;;;;;;20.33;12.10;;;;;;;4.11;82.59;97725.66;6291276;28;20380;-44
2022/11/28 14:34:44;;;;;;;18.70;12.17;;;;;;;4.06;83.04;97734.59;6294190;28;20237;-44
2022/11/28 14:37:52;;;;;;;23.10;14.00;;;;;;;3.98;83.12;97725.47;6291161;28;20230;-44
2022/11/28 14:40:55;;;;;;;25.60;13.40;;;;;;;3.86;84.32;97732.19;6272262;28;20230;-44
2022/11/28 14:44:45;;;;;;;18.93;12.07;;;;;;;3.86;84.44;97734.81;6278051;28;20234;-44
2022/11/28 14:48:22;;;;;;;25.83;13.13;;;;;;;3.79;84.22;97737.81;6188756;28;20304;-44
2022/11/28 14:51:52;;;;;;;25.03;14.57;;;;;;;3.62;85.79;97739.53;6208081;28;20707;-44